sensor_id;sensor_type;location;lat;lon;timestamp;P1;durP1;ratioP1;P2;durP2;ratioP2
22270;SDS011;11304;53.520;10.104;2023-05-25T00:01:35;15.55;;;6.25;;
22270;SDS011;11304;53.520;10.104;2023-05-25T00:04:01;17.95;;;6.57;;
22270;SDS011;11304;53.520;10.104;2023-05-25T00:06:28;16.38;;;6.03;;
22270;SDS011;11304;53.520;10.104;2023-05-25T00:08:55;14.43;;;6.13;;
22270;SDS011;11304;53.520;10.104;2023-05-25T00:11:22;18.95;;;6.45;;
22270;SDS011;11304;53.520;10.104;2023-05-25T00:13:48;20.65;;;6.60;;
22270;SDS011;11304;53.520;10.104;2023-05-25T00:16:15;14.57;;;6.22;;
22270;SDS011;11304;53.520;10.104;2023-05-25T00:18:41;14.35;;;5.82;;
22270;SDS011;11304;53.520;10.104;2023-05-25T00:21:07;12.05;;;5.30;;
22270;SDS011;11304;53.520;10.104;2023-05-25T00:23:34;11.23;;;5.60;;
22270;SDS011;11304;53.520;10.104;2023-05-25T00:26:01;12.75;;;6.00;;
22270;SDS011;11304;53.520;10.104;2023-05-25T00:28:28;14.20;;;6.05;;
22270;SDS011;11304;53.520;10.104;2023-05-25T00:30:54;16.70;;;5.93;;
22270;SDS011;11304;53.520;10.104;2023-05-25T00:33:20;14.43;;;6.20;;
22270;SDS011;11304;53.520;10.104;2023-05-25T00:35:46;9.52;;;4.53;;
22270;SDS011;11304;53.520;10.104;2023-05-25T00:38:13;12.70;;;6.00;;
22270;SDS011;11304;53.520;10.104;2023-05-25T00:40:40;12.25;;;5.90;;
22270;SDS011;11304;53.520;10.104;2023-05-25T00:43:09;11.05;;;5.28;;
22270;SDS011;11304;53.520;10.104;2023-05-25T00:45:35;15.18;;;6.80;;
22270;SDS011;11304;53.520;10.104;2023-05-25T00:48:02;13.07;;;7.22;;
22270;SDS011;11304;53.520;10.104;2023-05-25T00:50:41;17.70;;;7.25;;
22270;SDS011;11304;53.520;10.104;2023-05-25T00:53:10;18.73;;;7.32;;
22270;SDS011;11304;53.520;10.104;2023-05-25T00:55:49;16.15;;;7.15;;
22270;SDS011;11304;53.520;10.104;2023-05-25T00:58:19;21.08;;;7.63;;
22270;SDS011;11304;53.520;10.104;2023-05-25T01:00:46;18.38;;;8.95;;
22270;SDS011;11304;53.520;10.104;2023-05-25T01:03:14;16.95;;;8.40;;
22270;SDS011;11304;53.520;10.104;2023-05-25T01:05:42;20.88;;;9.65;;
22270;SDS011;11304;53.520;10.104;2023-05-25T01:08:10;23.85;;;9.93;;
22270;SDS011;11304;53.520;10.104;2023-05-25T01:10:36;19.10;;;9.43;;
22270;SDS011;11304;53.520;10.104;2023-05-25T01:13:03;21.92;;;10.07;;
22270;SDS011;11304;53.520;10.104;2023-05-25T01:15:31;19.07;;;9.10;;
22270;SDS011;11304;53.520;10.104;2023-05-25T01:17:57;19.05;;;9.43;;
22270;SDS011;11304;53.520;10.104;2023-05-25T01:20:26;21.35;;;9.73;;
22270;SDS011;11304;53.520;10.104;2023-05-25T01:23:04;28.20;;;10.80;;
22270;SDS011;11304;53.520;10.104;2023-05-25T01:25:35;25.05;;;10.50;;
22270;SDS011;11304;53.520;10.104;2023-05-25T01:28:09;26.90;;;10.43;;
22270;SDS011;11304;53.520;10.104;2023-05-25T01:30:37;20.77;;;9.30;;
22270;SDS011;11304;53.520;10.104;2023-05-25T01:33:06;19.02;;;9.05;;
22270;SDS011;11304;53.520;10.104;2023-05-25T01:35:32;16.63;;;8.15;;
22270;SDS011;11304;53.520;10.104;2023-05-25T01:37:58;28.40;;;10.73;;
22270;SDS011;11304;53.520;10.104;2023-05-25T01:40:25;15.77;;;9.05;;
22270;SDS011;11304;53.520;10.104;2023-05-25T01:42:52;19.38;;;9.70;;
22270;SDS011;11304;53.520;10.104;2023-05-25T01:45:18;27.33;;;10.63;;
22270;SDS011;11304;53.520;10.104;2023-05-25T01:47:46;20.58;;;10.50;;
22270;SDS011;11304;53.520;10.104;2023-05-25T01:53:21;26.05;;;10.27;;
22270;SDS011;11304;53.520;10.104;2023-05-25T01:55:47;26.55;;;11.13;;
22270;SDS011;11304;53.520;10.104;2023-05-25T01:58:16;24.25;;;11.13;;
22270;SDS011;11304;53.520;10.104;2023-05-25T02:00:43;24.33;;;11.18;;
22270;SDS011;11304;53.520;10.104;2023-05-25T02:03:10;20.88;;;10.48;;
22270;SDS011;11304;53.520;10.104;2023-05-25T02:05:36;24.95;;;11.25;;
22270;SDS011;11304;53.520;10.104;2023-05-25T02:08:02;23.70;;;10.90;;
22270;SDS011;11304;53.520;10.104;2023-05-25T02:10:28;25.13;;;11.25;;
22270;SDS011;11304;53.520;10.104;2023-05-25T02:12:55;25.40;;;12.48;;
22270;SDS011;11304;53.520;10.104;2023-05-25T02:15:21;23.60;;;11.13;;
22270;SDS011;11304;53.520;10.104;2023-05-25T02:17:47;26.15;;;11.60;;
22270;SDS011;11304;53.520;10.104;2023-05-25T02:20:14;15.35;;;9.50;;
22270;SDS011;11304;53.520;10.104;2023-05-25T02:22:40;18.77;;;10.63;;
22270;SDS011;11304;53.520;10.104;2023-05-25T02:25:06;22.17;;;10.57;;
22270;SDS011;11304;53.520;10.104;2023-05-25T02:27:33;20.63;;;9.88;;
22270;SDS011;11304;53.520;10.104;2023-05-25T02:29:59;17.88;;;9.93;;
22270;SDS011;11304;53.520;10.104;2023-05-25T02:32:26;26.38;;;11.50;;
22270;SDS011;11304;53.520;10.104;2023-05-25T02:34:53;18.13;;;9.38;;
22270;SDS011;11304;53.520;10.104;2023-05-25T02:37:19;19.63;;;10.13;;
22270;SDS011;11304;53.520;10.104;2023-05-25T02:39:45;16.15;;;8.93;;
22270;SDS011;11304;53.520;10.104;2023-05-25T02:42:12;15.57;;;9.25;;
22270;SDS011;11304;53.520;10.104;2023-05-25T02:44:38;20.00;;;11.25;;
22270;SDS011;11304;53.520;10.104;2023-05-25T02:47:04;26.33;;;11.38;;
22270;SDS011;11304;53.520;10.104;2023-05-25T02:49:31;30.23;;;12.57;;
22270;SDS011;11304;53.520;10.104;2023-05-25T02:51:58;27.40;;;12.60;;
22270;SDS011;11304;53.520;10.104;2023-05-25T02:54:24;24.48;;;12.27;;
22270;SDS011;11304;53.520;10.104;2023-05-25T02:56:50;33.63;;;13.32;;
22270;SDS011;11304;53.520;10.104;2023-05-25T02:59:17;33.75;;;13.35;;
22270;SDS011;11304;53.520;10.104;2023-05-25T03:01:43;27.70;;;13.18;;
22270;SDS011;11304;53.520;10.104;2023-05-25T03:04:09;29.75;;;13.18;;
22270;SDS011;11304;53.520;10.104;2023-05-25T03:06:35;30.88;;;13.00;;
22270;SDS011;11304;53.520;10.104;2023-05-25T03:09:01;31.50;;;12.38;;
22270;SDS011;11304;53.520;10.104;2023-05-25T03:11:30;29.40;;;12.38;;
22270;SDS011;11304;53.520;10.104;2023-05-25T03:13:56;30.40;;;13.25;;
22270;SDS011;11304;53.520;10.104;2023-05-25T03:16:22;24.88;;;12.23;;
22270;SDS011;11304;53.520;10.104;2023-05-25T03:18:49;27.42;;;11.98;;
22270;SDS011;11304;53.520;10.104;2023-05-25T03:21:16;27.10;;;11.82;;
22270;SDS011;11304;53.520;10.104;2023-05-25T03:23:42;28.05;;;12.10;;
22270;SDS011;11304;53.520;10.104;2023-05-25T03:26:08;27.73;;;12.13;;
22270;SDS011;11304;53.520;10.104;2023-05-25T03:28:34;30.48;;;12.02;;
22270;SDS011;11304;53.520;10.104;2023-05-25T03:31:00;28.98;;;10.95;;
22270;SDS011;11304;53.520;10.104;2023-05-25T03:33:26;33.38;;;11.82;;
22270;SDS011;11304;53.520;10.104;2023-05-25T03:35:52;29.98;;;11.57;;
22270;SDS011;11304;53.520;10.104;2023-05-25T03:38:18;23.33;;;10.50;;
22270;SDS011;11304;53.520;10.104;2023-05-25T03:40:45;25.45;;;10.85;;
22270;SDS011;11304;53.520;10.104;2023-05-25T03:43:11;28.52;;;11.27;;
22270;SDS011;11304;53.520;10.104;2023-05-25T03:45:37;30.52;;;10.13;;
22270;SDS011;11304;53.520;10.104;2023-05-25T03:48:03;33.97;;;12.35;;
22270;SDS011;11304;53.520;10.104;2023-05-25T03:50:29;33.72;;;13.10;;
22270;SDS011;11304;53.520;10.104;2023-05-25T03:52:55;29.50;;;11.18;;
22270;SDS011;11304;53.520;10.104;2023-05-25T03:55:21;25.90;;;10.55;;
22270;SDS011;11304;53.520;10.104;2023-05-25T03:57:47;24.65;;;9.90;;
22270;SDS011;11304;53.520;10.104;2023-05-25T04:00:14;26.73;;;10.15;;
22270;SDS011;11304;53.520;10.104;2023-05-25T04:02:40;28.77;;;10.60;;
22270;SDS011;11304;53.520;10.104;2023-05-25T04:05:07;34.63;;;14.07;;
22270;SDS011;11304;53.520;10.104;2023-05-25T04:07:33;23.10;;;11.02;;
22270;SDS011;11304;53.520;10.104;2023-05-25T04:10:01;38.35;;;16.65;;
22270;SDS011;11304;53.520;10.104;2023-05-25T04:12:27;26.63;;;12.63;;
22270;SDS011;11304;53.520;10.104;2023-05-25T04:14:53;29.85;;;12.15;;
22270;SDS011;11304;53.520;10.104;2023-05-25T04:17:20;32.30;;;14.00;;
22270;SDS011;11304;53.520;10.104;2023-05-25T04:19:48;38.30;;;15.57;;
22270;SDS011;11304;53.520;10.104;2023-05-25T04:22:15;32.97;;;14.00;;
22270;SDS011;11304;53.520;10.104;2023-05-25T04:24:41;28.33;;;11.52;;
22270;SDS011;11304;53.520;10.104;2023-05-25T04:27:07;26.50;;;10.45;;
22270;SDS011;11304;53.520;10.104;2023-05-25T04:29:33;28.60;;;11.63;;
22270;SDS011;11304;53.520;10.104;2023-05-25T04:31:59;24.77;;;11.23;;
22270;SDS011;11304;53.520;10.104;2023-05-25T04:34:26;42.97;;;12.45;;
22270;SDS011;11304;53.520;10.104;2023-05-25T04:36:53;30.75;;;10.35;;
22270;SDS011;11304;53.520;10.104;2023-05-25T04:39:20;30.77;;;12.30;;
22270;SDS011;11304;53.520;10.104;2023-05-25T04:41:46;27.45;;;10.30;;
22270;SDS011;11304;53.520;10.104;2023-05-25T04:44:12;28.50;;;11.70;;
22270;SDS011;11304;53.520;10.104;2023-05-25T04:46:39;29.92;;;10.20;;
22270;SDS011;11304;53.520;10.104;2023-05-25T04:49:05;24.40;;;10.43;;
22270;SDS011;11304;53.520;10.104;2023-05-25T04:51:34;40.10;;;12.50;;
22270;SDS011;11304;53.520;10.104;2023-05-25T04:54:01;35.13;;;12.40;;
22270;SDS011;11304;53.520;10.104;2023-05-25T04:56:27;30.48;;;11.95;;
22270;SDS011;11304;53.520;10.104;2023-05-25T04:58:53;28.65;;;12.45;;
22270;SDS011;11304;53.520;10.104;2023-05-25T05:01:19;27.90;;;10.80;;
22270;SDS011;11304;53.520;10.104;2023-05-25T05:03:45;27.63;;;11.13;;
22270;SDS011;11304;53.520;10.104;2023-05-25T05:06:11;38.15;;;11.50;;
22270;SDS011;11304;53.520;10.104;2023-05-25T05:08:38;23.00;;;10.15;;
22270;SDS011;11304;53.520;10.104;2023-05-25T05:11:04;25.27;;;9.15;;
22270;SDS011;11304;53.520;10.104;2023-05-25T05:13:30;26.05;;;8.77;;
22270;SDS011;11304;53.520;10.104;2023-05-25T05:15:56;27.83;;;8.68;;
22270;SDS011;11304;53.520;10.104;2023-05-25T05:18:22;24.83;;;9.05;;
22270;SDS011;11304;53.520;10.104;2023-05-25T05:20:48;22.25;;;7.68;;
22270;SDS011;11304;53.520;10.104;2023-05-25T05:23:14;39.60;;;9.18;;
22270;SDS011;11304;53.520;10.104;2023-05-25T05:25:41;28.83;;;9.00;;
22270;SDS011;11304;53.520;10.104;2023-05-25T05:28:07;24.30;;;8.90;;
22270;SDS011;11304;53.520;10.104;2023-05-25T05:30:33;27.50;;;8.82;;
22270;SDS011;11304;53.520;10.104;2023-05-25T05:32:59;28.77;;;8.10;;
22270;SDS011;11304;53.520;10.104;2023-05-25T05:35:25;33.13;;;8.20;;
22270;SDS011;11304;53.520;10.104;2023-05-25T05:37:51;30.10;;;8.57;;
22270;SDS011;11304;53.520;10.104;2023-05-25T05:40:18;26.27;;;7.65;;
22270;SDS011;11304;53.520;10.104;2023-05-25T05:42:44;25.17;;;6.88;;
22270;SDS011;11304;53.520;10.104;2023-05-25T05:45:10;24.42;;;7.22;;
22270;SDS011;11304;53.520;10.104;2023-05-25T05:47:36;23.45;;;6.53;;
22270;SDS011;11304;53.520;10.104;2023-05-25T05:50:02;25.83;;;6.45;;
22270;SDS011;11304;53.520;10.104;2023-05-25T05:52:28;25.45;;;6.63;;
22270;SDS011;11304;53.520;10.104;2023-05-25T05:54:55;25.38;;;6.88;;
22270;SDS011;11304;53.520;10.104;2023-05-25T05:57:21;20.67;;;6.15;;
22270;SDS011;11304;53.520;10.104;2023-05-25T05:59:47;18.52;;;5.68;;
22270;SDS011;11304;53.520;10.104;2023-05-25T06:02:13;22.63;;;7.28;;
22270;SDS011;11304;53.520;10.104;2023-05-25T06:04:39;28.67;;;7.40;;
22270;SDS011;11304;53.520;10.104;2023-05-25T06:07:05;18.00;;;6.13;;
22270;SDS011;11304;53.520;10.104;2023-05-25T06:09:31;25.15;;;6.18;;
22270;SDS011;11304;53.520;10.104;2023-05-25T06:11:57;21.13;;;5.85;;
22270;SDS011;11304;53.520;10.104;2023-05-25T06:14:23;23.80;;;5.88;;
22270;SDS011;11304;53.520;10.104;2023-05-25T06:16:50;33.58;;;7.60;;
22270;SDS011;11304;53.520;10.104;2023-05-25T06:19:16;19.58;;;5.65;;
22270;SDS011;11304;53.520;10.104;2023-05-25T06:21:42;30.27;;;7.65;;
22270;SDS011;11304;53.520;10.104;2023-05-25T06:24:09;24.13;;;6.25;;
22270;SDS011;11304;53.520;10.104;2023-05-25T06:26:35;21.45;;;6.30;;
22270;SDS011;11304;53.520;10.104;2023-05-25T06:29:01;21.77;;;6.07;;
22270;SDS011;11304;53.520;10.104;2023-05-25T06:31:27;30.00;;;6.72;;
22270;SDS011;11304;53.520;10.104;2023-05-25T06:33:54;25.00;;;5.88;;
22270;SDS011;11304;53.520;10.104;2023-05-25T06:36:20;17.55;;;5.35;;
22270;SDS011;11304;53.520;10.104;2023-05-25T06:38:46;19.98;;;5.25;;
22270;SDS011;11304;53.520;10.104;2023-05-25T06:41:12;25.58;;;5.97;;
22270;SDS011;11304;53.520;10.104;2023-05-25T06:43:39;18.00;;;4.60;;
22270;SDS011;11304;53.520;10.104;2023-05-25T06:46:06;21.42;;;5.55;;
22270;SDS011;11304;53.520;10.104;2023-05-25T06:48:34;26.23;;;5.73;;
22270;SDS011;11304;53.520;10.104;2023-05-25T06:51:01;31.75;;;5.45;;
22270;SDS011;11304;53.520;10.104;2023-05-25T06:53:27;20.95;;;5.47;;
22270;SDS011;11304;53.520;10.104;2023-05-25T06:55:53;21.80;;;5.63;;
22270;SDS011;11304;53.520;10.104;2023-05-25T06:58:19;27.33;;;6.28;;
22270;SDS011;11304;53.520;10.104;2023-05-25T07:00:46;18.10;;;4.90;;
22270;SDS011;11304;53.520;10.104;2023-05-25T07:03:12;27.35;;;5.80;;
22270;SDS011;11304;53.520;10.104;2023-05-25T07:05:38;19.17;;;5.53;;
22270;SDS011;11304;53.520;10.104;2023-05-25T07:08:04;23.77;;;5.97;;
22270;SDS011;11304;53.520;10.104;2023-05-25T07:10:30;22.98;;;5.85;;
22270;SDS011;11304;53.520;10.104;2023-05-25T07:12:56;23.17;;;5.95;;
22270;SDS011;11304;53.520;10.104;2023-05-25T07:15:22;33.53;;;8.48;;
22270;SDS011;11304;53.520;10.104;2023-05-25T07:17:48;24.48;;;5.88;;
22270;SDS011;11304;53.520;10.104;2023-05-25T07:20:15;25.98;;;6.00;;
22270;SDS011;11304;53.520;10.104;2023-05-25T07:22:41;16.98;;;5.28;;
22270;SDS011;11304;53.520;10.104;2023-05-25T07:25:07;21.80;;;5.57;;
22270;SDS011;11304;53.520;10.104;2023-05-25T07:27:34;23.92;;;5.53;;
22270;SDS011;11304;53.520;10.104;2023-05-25T07:30:00;20.85;;;5.60;;
22270;SDS011;11304;53.520;10.104;2023-05-25T07:32:26;19.85;;;4.60;;
22270;SDS011;11304;53.520;10.104;2023-05-25T07:34:53;23.35;;;5.30;;
22270;SDS011;11304;53.520;10.104;2023-05-25T07:39:45;19.70;;;5.38;;
22270;SDS011;11304;53.520;10.104;2023-05-25T07:42:11;23.75;;;5.43;;
22270;SDS011;11304;53.520;10.104;2023-05-25T07:44:37;17.00;;;4.50;;
22270;SDS011;11304;53.520;10.104;2023-05-25T07:47:03;28.80;;;6.05;;
22270;SDS011;11304;53.520;10.104;2023-05-25T07:49:30;20.58;;;5.60;;
22270;SDS011;11304;53.520;10.104;2023-05-25T07:51:56;24.92;;;6.22;;
22270;SDS011;11304;53.520;10.104;2023-05-25T07:54:22;16.73;;;4.45;;
22270;SDS011;11304;53.520;10.104;2023-05-25T07:56:49;24.50;;;5.68;;
22270;SDS011;11304;53.520;10.104;2023-05-25T07:59:15;21.33;;;4.88;;
22270;SDS011;11304;53.520;10.104;2023-05-25T08:01:41;20.48;;;5.18;;
22270;SDS011;11304;53.520;10.104;2023-05-25T08:04:07;21.92;;;5.47;;
22270;SDS011;11304;53.520;10.104;2023-05-25T08:06:33;20.77;;;5.55;;
22270;SDS011;11304;53.520;10.104;2023-05-25T08:08:59;24.15;;;5.55;;
22270;SDS011;11304;53.520;10.104;2023-05-25T08:11:25;19.42;;;5.30;;
22270;SDS011;11304;53.520;10.104;2023-05-25T08:13:52;22.38;;;5.90;;
22270;SDS011;11304;53.520;10.104;2023-05-25T08:16:18;16.60;;;4.63;;
22270;SDS011;11304;53.520;10.104;2023-05-25T08:18:44;16.33;;;4.68;;
22270;SDS011;11304;53.520;10.104;2023-05-25T08:21:11;19.08;;;4.75;;
22270;SDS011;11304;53.520;10.104;2023-05-25T08:23:38;21.02;;;5.82;;
22270;SDS011;11304;53.520;10.104;2023-05-25T08:26:06;18.73;;;4.40;;
22270;SDS011;11304;53.520;10.104;2023-05-25T08:28:32;21.48;;;4.53;;
22270;SDS011;11304;53.520;10.104;2023-05-25T08:30:58;18.90;;;5.60;;
22270;SDS011;11304;53.520;10.104;2023-05-25T08:33:25;19.40;;;5.47;;
22270;SDS011;11304;53.520;10.104;2023-05-25T08:35:52;23.85;;;5.53;;
22270;SDS011;11304;53.520;10.104;2023-05-25T08:38:18;23.27;;;5.25;;
22270;SDS011;11304;53.520;10.104;2023-05-25T08:40:49;24.20;;;5.28;;
22270;SDS011;11304;53.520;10.104;2023-05-25T08:43:18;23.95;;;5.63;;
22270;SDS011;11304;53.520;10.104;2023-05-25T08:45:45;20.95;;;5.30;;
22270;SDS011;11304;53.520;10.104;2023-05-25T08:48:11;23.33;;;5.35;;
22270;SDS011;11304;53.520;10.104;2023-05-25T08:50:39;19.73;;;5.10;;
22270;SDS011;11304;53.520;10.104;2023-05-25T08:53:06;18.48;;;5.10;;
22270;SDS011;11304;53.520;10.104;2023-05-25T08:55:33;22.75;;;5.65;;
22270;SDS011;11304;53.520;10.104;2023-05-25T08:58:07;23.17;;;5.22;;
22270;SDS011;11304;53.520;10.104;2023-05-25T09:00:35;19.95;;;4.82;;
22270;SDS011;11304;53.520;10.104;2023-05-25T09:05:31;19.13;;;4.90;;
22270;SDS011;11304;53.520;10.104;2023-05-25T09:07:58;22.65;;;5.32;;
22270;SDS011;11304;53.520;10.104;2023-05-25T09:10:24;24.40;;;5.43;;
22270;SDS011;11304;53.520;10.104;2023-05-25T09:12:53;18.48;;;5.13;;
22270;SDS011;11304;53.520;10.104;2023-05-25T09:15:19;22.60;;;5.43;;
22270;SDS011;11304;53.520;10.104;2023-05-25T09:22:39;16.70;;;5.03;;
22270;SDS011;11304;53.520;10.104;2023-05-25T09:25:06;26.05;;;5.63;;
22270;SDS011;11304;53.520;10.104;2023-05-25T09:27:33;21.17;;;5.32;;
22270;SDS011;11304;53.520;10.104;2023-05-25T09:30:00;15.85;;;4.95;;
22270;SDS011;11304;53.520;10.104;2023-05-25T09:32:26;23.17;;;5.65;;
22270;SDS011;11304;53.520;10.104;2023-05-25T09:34:53;20.08;;;5.20;;
22270;SDS011;11304;53.520;10.104;2023-05-25T09:37:21;20.33;;;5.38;;
22270;SDS011;11304;53.520;10.104;2023-05-25T09:39:49;26.60;;;6.20;;
22270;SDS011;11304;53.520;10.104;2023-05-25T09:42:16;25.13;;;5.93;;
22270;SDS011;11304;53.520;10.104;2023-05-25T09:44:42;21.25;;;5.82;;
22270;SDS011;11304;53.520;10.104;2023-05-25T09:47:08;21.52;;;5.72;;
22270;SDS011;11304;53.520;10.104;2023-05-25T09:49:34;24.50;;;6.18;;
22270;SDS011;11304;53.520;10.104;2023-05-25T09:52:00;21.98;;;5.30;;
22270;SDS011;11304;53.520;10.104;2023-05-25T09:54:27;24.00;;;5.85;;
22270;SDS011;11304;53.520;10.104;2023-05-25T09:56:53;24.80;;;5.85;;
22270;SDS011;11304;53.520;10.104;2023-05-25T09:59:20;22.88;;;5.25;;
22270;SDS011;11304;53.520;10.104;2023-05-25T10:01:49;22.00;;;6.20;;
22270;SDS011;11304;53.520;10.104;2023-05-25T10:04:17;24.00;;;6.05;;
22270;SDS011;11304;53.520;10.104;2023-05-25T10:06:43;25.70;;;6.25;;
22270;SDS011;11304;53.520;10.104;2023-05-25T10:09:13;26.77;;;6.22;;
22270;SDS011;11304;53.520;10.104;2023-05-25T10:11:40;28.10;;;5.68;;
22270;SDS011;11304;53.520;10.104;2023-05-25T10:14:08;20.75;;;5.68;;
22270;SDS011;11304;53.520;10.104;2023-05-25T10:16:35;19.35;;;5.47;;
22270;SDS011;11304;53.520;10.104;2023-05-25T10:19:05;21.17;;;5.95;;
22270;SDS011;11304;53.520;10.104;2023-05-25T10:21:32;26.45;;;6.05;;
22270;SDS011;11304;53.520;10.104;2023-05-25T10:24:05;24.15;;;5.68;;
22270;SDS011;11304;53.520;10.104;2023-05-25T10:26:32;20.80;;;5.45;;
22270;SDS011;11304;53.520;10.104;2023-05-25T10:29:01;24.10;;;5.75;;
22270;SDS011;11304;53.520;10.104;2023-05-25T10:31:28;24.70;;;5.55;;
22270;SDS011;11304;53.520;10.104;2023-05-25T10:33:57;23.95;;;6.10;;
22270;SDS011;11304;53.520;10.104;2023-05-25T10:36:24;22.77;;;5.50;;
22270;SDS011;11304;53.520;10.104;2023-05-25T10:38:50;19.77;;;5.55;;
22270;SDS011;11304;53.520;10.104;2023-05-25T10:41:18;18.25;;;5.25;;
22270;SDS011;11304;53.520;10.104;2023-05-25T10:43:45;23.15;;;5.75;;
22270;SDS011;11304;53.520;10.104;2023-05-25T10:46:11;22.45;;;6.35;;
22270;SDS011;11304;53.520;10.104;2023-05-25T10:48:43;24.52;;;6.45;;
22270;SDS011;11304;53.520;10.104;2023-05-25T10:51:10;25.40;;;6.53;;
22270;SDS011;11304;53.520;10.104;2023-05-25T10:53:36;23.77;;;6.07;;
22270;SDS011;11304;53.520;10.104;2023-05-25T10:56:03;27.23;;;6.50;;
22270;SDS011;11304;53.520;10.104;2023-05-25T10:58:30;26.40;;;5.83;;
22270;SDS011;11304;53.520;10.104;2023-05-25T11:01:07;21.42;;;5.15;;
22270;SDS011;11304;53.520;10.104;2023-05-25T11:06:11;27.85;;;6.30;;
22270;SDS011;11304;53.520;10.104;2023-05-25T11:08:55;22.73;;;5.28;;
22270;SDS011;11304;53.520;10.104;2023-05-25T11:14:26;23.52;;;6.35;;
22270;SDS011;11304;53.520;10.104;2023-05-25T11:22:33;30.40;;;6.93;;
22270;SDS011;11304;53.520;10.104;2023-05-25T11:25:01;29.17;;;6.88;;
22270;SDS011;11304;53.520;10.104;2023-05-25T11:27:28;26.42;;;6.78;;
22270;SDS011;11304;53.520;10.104;2023-05-25T11:29:55;23.63;;;6.30;;
22270;SDS011;11304;53.520;10.104;2023-05-25T11:32:21;29.08;;;7.00;;
22270;SDS011;11304;53.520;10.104;2023-05-25T11:34:50;26.60;;;7.20;;
22270;SDS011;11304;53.520;10.104;2023-05-25T11:37:18;30.50;;;6.90;;
22270;SDS011;11304;53.520;10.104;2023-05-25T11:39:48;27.98;;;6.93;;
22270;SDS011;11304;53.520;10.104;2023-05-25T11:42:15;32.58;;;7.60;;
22270;SDS011;11304;53.520;10.104;2023-05-25T11:44:41;26.67;;;6.97;;
22270;SDS011;11304;53.520;10.104;2023-05-25T11:47:08;38.03;;;7.70;;
22270;SDS011;11304;53.520;10.104;2023-05-25T11:49:41;25.42;;;7.03;;
22270;SDS011;11304;53.520;10.104;2023-05-25T11:52:10;31.80;;;7.68;;
22270;SDS011;11304;53.520;10.104;2023-05-25T11:54:37;28.10;;;6.78;;
22270;SDS011;11304;53.520;10.104;2023-05-25T11:57:15;30.02;;;7.60;;
22270;SDS011;11304;53.520;10.104;2023-05-25T11:59:58;32.45;;;7.85;;
22270;SDS011;11304;53.520;10.104;2023-05-25T12:02:25;26.92;;;7.10;;
22270;SDS011;11304;53.520;10.104;2023-05-25T12:04:58;31.73;;;7.18;;
22270;SDS011;11304;53.520;10.104;2023-05-25T12:07:25;28.88;;;7.53;;
22270;SDS011;11304;53.520;10.104;2023-05-25T12:15:10;24.48;;;7.05;;
22270;SDS011;11304;53.520;10.104;2023-05-25T12:17:37;31.58;;;7.20;;
22270;SDS011;11304;53.520;10.104;2023-05-25T12:20:05;35.47;;;8.77;;
22270;SDS011;11304;53.520;10.104;2023-05-25T12:22:32;32.33;;;7.45;;
22270;SDS011;11304;53.520;10.104;2023-05-25T12:24:58;28.10;;;7.10;;
22270;SDS011;11304;53.520;10.104;2023-05-25T12:27:25;27.13;;;7.38;;
22270;SDS011;11304;53.520;10.104;2023-05-25T12:29:51;31.92;;;8.25;;
22270;SDS011;11304;53.520;10.104;2023-05-25T12:32:17;31.30;;;7.75;;
22270;SDS011;11304;53.520;10.104;2023-05-25T12:34:43;25.27;;;7.35;;
22270;SDS011;11304;53.520;10.104;2023-05-25T12:37:16;27.50;;;6.88;;
22270;SDS011;11304;53.520;10.104;2023-05-25T12:39:43;30.92;;;7.10;;
22270;SDS011;11304;53.520;10.104;2023-05-25T12:42:15;24.60;;;6.70;;
22270;SDS011;11304;53.520;10.104;2023-05-25T12:44:42;26.10;;;6.75;;
22270;SDS011;11304;53.520;10.104;2023-05-25T12:47:10;33.90;;;7.40;;
22270;SDS011;11304;53.520;10.104;2023-05-25T12:49:37;35.45;;;7.50;;
22270;SDS011;11304;53.520;10.104;2023-05-25T12:52:03;36.25;;;7.60;;
22270;SDS011;11304;53.520;10.104;2023-05-25T12:56:59;25.45;;;7.32;;
22270;SDS011;11304;53.520;10.104;2023-05-25T12:59:30;26.27;;;7.70;;
22270;SDS011;11304;53.520;10.104;2023-05-25T13:01:57;28.73;;;6.88;;
22270;SDS011;11304;53.520;10.104;2023-05-25T13:04:24;22.42;;;6.75;;
22270;SDS011;11304;53.520;10.104;2023-05-25T13:06:50;26.02;;;6.40;;
22270;SDS011;11304;53.520;10.104;2023-05-25T13:09:17;25.77;;;6.93;;
22270;SDS011;11304;53.520;10.104;2023-05-25T13:11:43;25.75;;;7.35;;
22270;SDS011;11304;53.520;10.104;2023-05-25T13:14:09;29.98;;;7.25;;
22270;SDS011;11304;53.520;10.104;2023-05-25T13:16:35;23.45;;;6.47;;
22270;SDS011;11304;53.520;10.104;2023-05-25T13:19:01;26.63;;;7.10;;
22270;SDS011;11304;53.520;10.104;2023-05-25T13:21:27;27.65;;;7.35;;
22270;SDS011;11304;53.520;10.104;2023-05-25T13:23:53;25.33;;;6.60;;
22270;SDS011;11304;53.520;10.104;2023-05-25T13:26:19;32.38;;;8.10;;
22270;SDS011;11304;53.520;10.104;2023-05-25T13:28:46;29.05;;;7.15;;
22270;SDS011;11304;53.520;10.104;2023-05-25T13:31:13;24.48;;;6.90;;
22270;SDS011;11304;53.520;10.104;2023-05-25T13:33:39;29.58;;;6.78;;
22270;SDS011;11304;53.520;10.104;2023-05-25T13:36:05;25.92;;;6.57;;
22270;SDS011;11304;53.520;10.104;2023-05-25T13:38:35;27.67;;;7.18;;
22270;SDS011;11304;53.520;10.104;2023-05-25T13:41:01;26.10;;;8.00;;
22270;SDS011;11304;53.520;10.104;2023-05-25T13:43:28;24.23;;;6.57;;
22270;SDS011;11304;53.520;10.104;2023-05-25T13:45:54;30.88;;;7.35;;
22270;SDS011;11304;53.520;10.104;2023-05-25T13:50:49;26.70;;;7.55;;
22270;SDS011;11304;53.520;10.104;2023-05-25T13:53:15;23.42;;;6.22;;
22270;SDS011;11304;53.520;10.104;2023-05-25T13:55:41;27.98;;;7.72;;
22270;SDS011;11304;53.520;10.104;2023-05-25T13:58:07;28.95;;;7.63;;
22270;SDS011;11304;53.520;10.104;2023-05-25T14:00:34;29.58;;;7.95;;
22270;SDS011;11304;53.520;10.104;2023-05-25T14:03:00;25.65;;;7.40;;
22270;SDS011;11304;53.520;10.104;2023-05-25T14:05:27;24.23;;;7.13;;
22270;SDS011;11304;53.520;10.104;2023-05-25T14:07:54;25.20;;;6.95;;
22270;SDS011;11304;53.520;10.104;2023-05-25T14:10:20;29.83;;;7.43;;
22270;SDS011;11304;53.520;10.104;2023-05-25T14:12:46;29.52;;;6.40;;
22270;SDS011;11304;53.520;10.104;2023-05-25T14:15:13;23.98;;;6.47;;
22270;SDS011;11304;53.520;10.104;2023-05-25T14:17:39;31.92;;;7.45;;
22270;SDS011;11304;53.520;10.104;2023-05-25T14:20:05;28.95;;;6.60;;
22270;SDS011;11304;53.520;10.104;2023-05-25T14:22:31;28.85;;;7.60;;
22270;SDS011;11304;53.520;10.104;2023-05-25T14:24:58;25.45;;;6.90;;
22270;SDS011;11304;53.520;10.104;2023-05-25T14:27:24;32.45;;;8.10;;
22270;SDS011;11304;53.520;10.104;2023-05-25T14:29:50;29.73;;;7.68;;
22270;SDS011;11304;53.520;10.104;2023-05-25T14:32:17;33.25;;;8.57;;
22270;SDS011;11304;53.520;10.104;2023-05-25T14:34:43;28.02;;;6.75;;
22270;SDS011;11304;53.520;10.104;2023-05-25T14:37:09;24.45;;;6.50;;
22270;SDS011;11304;53.520;10.104;2023-05-25T14:39:36;27.33;;;7.32;;
22270;SDS011;11304;53.520;10.104;2023-05-25T14:42:02;23.83;;;7.32;;
22270;SDS011;11304;53.520;10.104;2023-05-25T14:44:29;30.92;;;7.55;;
22270;SDS011;11304;53.520;10.104;2023-05-25T14:46:55;27.83;;;7.45;;
22270;SDS011;11304;53.520;10.104;2023-05-25T14:49:22;24.20;;;6.93;;
22270;SDS011;11304;53.520;10.104;2023-05-25T14:51:51;23.20;;;7.32;;